Time;durP1;ratioP1;P1;durP2;ratioP2;P2;SDS_P1;SDS_P2;PMS_P1;PMS_P2;Temp;Humidity;BMP_temperature;BMP_pressure;BME280_temperature;BME280_humidity;BME280_pressure;Samples;Min_cycle;Max_cycle;Signal;HPM_P1;HPM_P2
2023/12/16 00:02:03;;;;;;;3.75;1.08;;;7.20;99.90;;;;;;5010940;28;20125;-76
2023/12/16 00:04:29;;;;;;;1.67;1.15;;;7.20;99.90;;;;;;5001054;28;20058;-76
2023/12/16 00:06:54;;;;;;;7.25;1.73;;;7.20;99.90;;;;;;4988727;28;20401;-76
2023/12/16 00:09:20;;;;;;;9.82;1.55;;;7.20;99.90;;;;;;4982503;28;20049;-77
2023/12/16 00:11:46;;;;;;;5.18;1.50;;;7.20;99.90;;;;;;5014694;28;20102;-77
2023/12/16 00:14:11;;;;;;;6.82;1.60;;;7.20;99.90;;;;;;4999722;28;20069;-77
2023/12/16 00:16:45;;;;;;;7.50;1.60;;;7.30;99.90;;;;;;4996203;28;20057;-77
2023/12/16 00:19:11;;;;;;;3.63;1.02;;;7.30;99.90;;;;;;4998267;28;20049;-77
2023/12/16 00:21:37;;;;;;;1.85;1.33;;;7.30;99.90;;;;;;5016211;28;20038;-76
2023/12/16 00:24:09;;;;;;;6.63;0.85;;;7.30;99.90;;;;;;4997488;28;20045;-77
2023/12/16 00:26:35;;;;;;;8.50;1.23;;;7.30;99.90;;;;;;4984044;28;20042;-77
2023/12/16 00:29:01;;;;;;;4.75;1.38;;;7.40;99.90;;;;;;4981438;28;20038;-77
2023/12/16 00:31:28;;;;;;;6.75;1.30;;;7.40;99.90;;;;;;5016254;28;20130;-76
2023/12/16 00:33:53;;;;;;;4.43;0.90;;;7.40;99.90;;;;;;4981495;28;20052;-77
2023/12/16 00:36:19;;;;;;;7.13;1.42;;;7.40;99.90;;;;;;4990876;28;20050;-76
2023/12/16 00:38:44;;;;;;;5.95;1.30;;;7.40;99.90;;;;;;4994344;28;20046;-76
2023/12/16 00:41:10;;;;;;;9.90;1.40;;;7.30;99.90;;;;;;4994396;28;20062;-76
2023/12/16 00:43:36;;;;;;;3.03;2.08;;;7.30;99.90;;;;;;4999800;28;20107;-76
2023/12/16 00:46:01;;;;;;;8.27;1.70;;;7.30;99.90;;;;;;4993219;28;20056;-76
2023/12/16 00:48:27;;;;;;;5.97;1.17;;;7.20;99.90;;;;;;5029437;28;20041;-76
2023/12/16 00:50:54;;;;;;;4.32;1.77;;;7.20;99.90;;;;;;5015188;28;20675;-76
2023/12/16 00:53:20;;;;;;;4.53;1.40;;;7.10;99.90;;;;;;4977274;28;20039;-76
2023/12/16 00:55:45;;;;;;;2.92;1.30;;;7.10;99.90;;;;;;4997131;28;20050;-76
2023/12/16 00:58:11;;;;;;;2.05;1.17;;;7.10;99.90;;;;;;4980441;28;20049;-76
2023/12/16 01:00:37;;;;;;;2.30;1.08;;;7.00;99.90;;;;;;5000198;28;20049;-77
2023/12/16 01:03:03;;;;;;;4.05;1.42;;;6.90;99.90;;;;;;4966473;28;20075;-77
2023/12/16 01:05:29;;;;;;;2.83;1.35;;;6.90;99.90;;;;;;4992772;28;20110;-76
2023/12/16 01:07:55;;;;;;;9.80;1.95;;;6.80;99.90;;;;;;4979403;28;20056;-76
2023/12/16 01:10:21;;;;;;;6.13;1.40;;;6.70;99.90;;;;;;4996115;28;20125;-76
2023/12/16 01:12:47;;;;;;;2.75;1.33;;;6.70;99.90;;;;;;4965849;28;20044;-77
2023/12/16 01:15:12;;;;;;;12.93;1.85;;;6.70;99.90;;;;;;4979838;28;20049;-76
2023/12/16 01:17:38;;;;;;;6.85;1.85;;;6.70;99.90;;;;;;5000371;28;20501;-77
2023/12/16 01:20:05;;;;;;;3.63;1.67;;;6.60;99.90;;;;;;4992211;28;20046;-77
2023/12/16 01:22:30;;;;;;;8.82;1.25;;;6.60;99.90;;;;;;4982169;28;20048;-76
2023/12/16 01:24:56;;;;;;;11.75;1.63;;;6.60;99.90;;;;;;4982011;28;20120;-76
2023/12/16 01:27:22;;;;;;;9.07;1.63;;;6.50;99.90;;;;;;4982443;28;20044;-76
2023/12/16 01:29:47;;;;;;;3.60;2.00;;;6.40;99.90;;;;;;4981084;28;20042;-76
2023/12/16 01:32:13;;;;;;;14.00;1.48;;;6.30;99.90;;;;;;4981734;28;20072;-76
2023/12/16 01:34:39;;;;;;;4.22;1.20;;;6.20;99.90;;;;;;4967282;28;20090;-76
2023/12/16 01:37:05;;;;;;;2.88;1.20;;;6.10;99.90;;;;;;5000096;28;20056;-76
2023/12/16 01:39:31;;;;;;;2.95;1.20;;;6.10;99.90;;;;;;4986511;28;20049;-76
2023/12/16 01:41:56;;;;;;;8.05;1.42;;;6.00;99.90;;;;;;4968864;28;20046;-76
2023/12/16 01:44:22;;;;;;;8.65;1.48;;;5.90;99.90;;;;;;4987118;28;20038;-76
2023/12/16 01:46:48;;;;;;;3.90;1.35;;;5.80;99.90;;;;;;4970231;28;20038;-76
2023/12/16 01:49:14;;;;;;;10.07;1.27;;;5.70;99.90;;;;;;4970125;28;20137;-76
2023/12/16 01:51:39;;;;;;;5.15;1.15;;;5.70;99.90;;;;;;4995615;28;20070;-76
2023/12/16 01:54:07;;;;;;;9.63;1.30;;;5.60;99.90;;;;;;4989149;28;20033;-76
2023/12/16 01:56:33;;;;;;;4.70;1.63;;;5.50;99.90;;;;;;5008645;28;20060;-76
2023/12/16 01:58:59;;;;;;;7.55;1.33;;;5.60;99.90;;;;;;5000773;28;20064;-76
2023/12/16 02:01:25;;;;;;;2.10;1.00;;;5.60;99.90;;;;;;5003386;28;20105;-76
2023/12/16 02:03:51;;;;;;;3.55;1.38;;;5.60;99.90;;;;;;4996466;28;20046;-76
2023/12/16 02:06:17;;;;;;;6.88;1.20;;;5.50;99.90;;;;;;5014128;28;20153;-76
2023/12/16 02:08:43;;;;;;;2.17;1.08;;;5.50;99.90;;;;;;5019993;28;20041;-76
2023/12/16 02:11:10;;;;;;;5.75;1.48;;;5.50;99.90;;;;;;5000656;28;20061;-76
2023/12/16 02:13:40;;;;;;;9.77;1.33;;;5.50;99.90;;;;;;4986273;28;20057;-76
2023/12/16 02:16:07;;;;;;;5.47;1.15;;;5.50;99.90;;;;;;5040126;28;20455;-76
2023/12/16 02:18:32;;;;;;;2.35;1.52;;;5.50;99.90;;;;;;5005157;28;20052;-76
2023/12/16 02:20:58;;;;;;;7.53;1.42;;;5.50;99.90;;;;;;4985756;28;20049;-76
2023/12/16 02:23:24;;;;;;;1.30;1.15;;;5.40;99.90;;;;;;4985643;28;20045;-76
2023/12/16 02:25:49;;;;;;;4.25;1.25;;;5.40;99.90;;;;;;5019299;28;20486;-76
2023/12/16 02:28:15;;;;;;;3.30;1.48;;;5.30;99.90;;;;;;5016599;28;20493;-75
2023/12/16 02:30:41;;;;;;;7.88;1.80;;;5.30;99.90;;;;;;5020643;28;20050;-76
2023/12/16 02:33:07;;;;;;;4.25;1.23;;;5.30;99.90;;;;;;4983853;28;20049;-76
2023/12/16 02:35:33;;;;;;;4.05;1.00;;;5.30;99.90;;;;;;4986743;28;20044;-76
2023/12/16 02:37:59;;;;;;;5.57;1.58;;;5.30;99.90;;;;;;5017049;28;20056;-76
2023/12/16 02:40:25;;;;;;;8.27;1.42;;;5.30;99.90;;;;;;4965919;28;20046;-76
2023/12/16 02:42:51;;;;;;;4.07;1.08;;;5.30;99.90;;;;;;4997118;28;20045;-76
2023/12/16 02:45:16;;;;;;;5.38;1.05;;;5.30;99.90;;;;;;5014346;28;20046;-76
2023/12/16 02:47:43;;;;;;;2.67;1.15;;;5.30;99.90;;;;;;5017044;28;20045;-76
2023/12/16 02:50:08;;;;;;;9.65;1.45;;;5.30;99.90;;;;;;4994361;28;20111;-76
2023/12/16 02:52:34;;;;;;;6.38;1.33;;;5.40;99.90;;;;;;4980840;28;20471;-76
2023/12/16 02:55:00;;;;;;;6.53;1.65;;;5.40;99.90;;;;;;4979536;28;20050;-76
2023/12/16 02:57:26;;;;;;;4.88;1.00;;;5.40;99.90;;;;;;4980353;28;20038;-76
2023/12/16 02:59:51;;;;;;;8.25;1.42;;;5.40;99.90;;;;;;4979894;28;20057;-76
2023/12/16 03:02:17;;;;;;;7.35;1.15;;;5.40;99.90;;;;;;5011063;28;20046;-76
2023/12/16 03:04:43;;;;;;;5.68;1.10;;;5.40;99.90;;;;;;4984276;28;20081;-76
2023/12/16 03:07:09;;;;;;;3.42;1.13;;;5.40;99.90;;;;;;4983818;28;20042;-76
2023/12/16 03:09:35;;;;;;;4.15;1.42;;;5.40;99.90;;;;;;4969447;28;20198;-76
2023/12/16 03:12:01;;;;;;;3.45;1.20;;;5.50;99.90;;;;;;5015088;28;20050;-76
2023/12/16 03:14:27;;;;;;;3.13;1.10;;;5.40;99.90;;;;;;4995231;28;20046;-76
2023/12/16 03:16:53;;;;;;;4.63;0.90;;;5.50;99.90;;;;;;4996555;28;20049;-76
2023/12/16 03:19:19;;;;;;;2.58;1.27;;;5.50;99.90;;;;;;4992702;28;20050;-76
2023/12/16 03:21:44;;;;;;;14.23;1.77;;;5.50;99.90;;;;;;4979143;28;20497;-76
2023/12/16 03:24:10;;;;;;;5.38;1.67;;;5.50;99.90;;;;;;4993537;28;20037;-76
2023/12/16 03:26:36;;;;;;;6.85;1.17;;;5.50;99.90;;;;;;4997510;28;20038;-76
2023/12/16 03:29:01;;;;;;;2.70;0.88;;;5.40;99.90;;;;;;4976833;28;20125;-76
2023/12/16 03:31:27;;;;;;;5.90;1.33;;;5.40;99.90;;;;;;4980347;28;21384;-76
2023/12/16 03:33:53;;;;;;;1.05;0.63;;;5.40;99.90;;;;;;4981792;28;20044;-76
2023/12/16 03:36:19;;;;;;;4.95;1.00;;;5.40;99.90;;;;;;4995066;28;20397;-76
2023/12/16 03:38:45;;;;;;;2.60;1.27;;;5.40;99.90;;;;;;4996473;28;20050;-76
2023/12/16 03:41:12;;;;;;;6.35;1.33;;;5.40;99.90;;;;;;5014098;28;20053;-76
2023/12/16 03:43:38;;;;;;;4.10;1.63;;;5.40;99.90;;;;;;5017451;28;20114;-76
2023/12/16 03:46:04;;;;;;;2.67;1.30;;;5.40;99.90;;;;;;4983563;28;20121;-76
2023/12/16 03:48:30;;;;;;;2.70;0.90;;;5.40;99.90;;;;;;4985495;28;20041;-75
2023/12/16 03:50:55;;;;;;;2.55;1.00;;;5.30;99.90;;;;;;4996497;28;20049;-76
2023/12/16 03:53:21;;;;;;;6.63;1.45;;;5.40;99.90;;;;;;4959644;28;20045;-76
2023/12/16 03:55:47;;;;;;;4.93;1.30;;;5.40;99.90;;;;;;4969295;28;20083;-76
2023/12/16 03:58:13;;;;;;;7.35;1.52;;;5.40;99.90;;;;;;5009812;28;20042;-76
2023/12/16 04:00:39;;;;;;;11.43;1.35;;;5.40;99.90;;;;;;4966498;28;20526;-76
2023/12/16 04:03:04;;;;;;;6.35;1.83;;;5.40;99.90;;;;;;4983069;28;20034;-76
2023/12/16 04:05:31;;;;;;;4.65;0.75;;;5.40;99.90;;;;;;4981808;28;20106;-76
2023/12/16 04:07:56;;;;;;;5.63;1.40;;;5.40;99.90;;;;;;4963608;28;20318;-76
2023/12/16 04:10:22;;;;;;;14.88;2.83;;;5.50;99.90;;;;;;4956855;28;20054;-76
2023/12/16 04:12:48;;;;;;;7.63;1.45;;;5.50;99.90;;;;;;4995425;28;20049;-76
2023/12/16 04:15:14;;;;;;;2.63;0.98;;;5.50;99.90;;;;;;5004951;28;20053;-76
2023/12/16 04:17:39;;;;;;;14.88;1.52;;;5.50;99.90;;;;;;4994819;28;20053;-76
2023/12/16 04:20:05;;;;;;;5.93;1.33;;;5.50;99.90;;;;;;4995599;28;20050;-76
2023/12/16 04:22:31;;;;;;;7.53;1.67;;;5.50;99.90;;;;;;4980121;28;20042;-76
2023/12/16 04:25:00;;;;;;;7.03;1.02;;;5.60;99.90;;;;;;4976235;28;20061;-76
2023/12/16 04:27:27;;;;;;;8.43;1.35;;;5.60;99.90;;;;;;4993426;28;20046;-76
2023/12/16 04:29:52;;;;;;;8.50;1.42;;;5.60;99.90;;;;;;4979618;28;20042;-76
2023/12/16 04:32:18;;;;;;;8.77;1.30;;;5.60;99.90;;;;;;4993113;28;20137;-76
2023/12/16 04:34:44;;;;;;;3.60;1.73;;;5.70;99.90;;;;;;4994859;28;20075;-76
2023/12/16 04:37:10;;;;;;;1.40;0.80;;;5.70;99.90;;;;;;4990992;28;20046;-76
2023/12/16 04:39:37;;;;;;;2.88;1.40;;;5.70;99.90;;;;;;4980506;28;20042;-76
2023/12/16 04:42:03;;;;;;;5.03;1.77;;;5.70;99.90;;;;;;4994968;28;20042;-76
2023/12/16 04:44:29;;;;;;;7.30;1.52;;;5.70;99.90;;;;;;4994869;28;20050;-76
2023/12/16 04:46:55;;;;;;;9.07;1.42;;;5.70;99.90;;;;;;4992415;28;20034;-76
2023/12/16 04:49:20;;;;;;;1.58;1.00;;;5.70;99.90;;;;;;4995478;28;20060;-76
2023/12/16 04:51:46;;;;;;;9.32;1.42;;;5.70;99.90;;;;;;5000734;28;20061;-76
2023/12/16 04:54:12;;;;;;;2.50;1.13;;;5.70;99.90;;;;;;4989555;28;20045;-76
2023/12/16 04:56:37;;;;;;;4.47;1.35;;;5.60;99.90;;;;;;5079305;28;20049;-76
2023/12/16 04:59:03;;;;;;;3.95;1.40;;;5.60;99.90;;;;;;4992017;28;20513;-76
2023/12/16 05:01:29;;;;;;;7.18;1.85;;;5.60;99.90;;;;;;5011869;28;20038;-76
2023/12/16 05:03:55;;;;;;;8.82;1.60;;;5.60;99.90;;;;;;5010852;28;20038;-76
2023/12/16 05:06:21;;;;;;;3.40;1.17;;;5.50;99.90;;;;;;4976901;28;20083;-76
2023/12/16 05:08:47;;;;;;;7.72;1.83;;;5.50;99.90;;;;;;4991388;28;20042;-76
2023/12/16 05:11:12;;;;;;;3.45;1.10;;;5.50;99.90;;;;;;4997449;28;20049;-76
2023/12/16 05:13:38;;;;;;;3.58;1.38;;;5.40;99.90;;;;;;4998593;28;20068;-76
2023/12/16 05:16:04;;;;;;;1.88;1.15;;;5.40;99.90;;;;;;4997109;28;20079;-76
2023/12/16 05:18:30;;;;;;;13.07;1.50;;;5.40;99.90;;;;;;5000243;28;20058;-76
2023/12/16 05:20:56;;;;;;;3.60;1.40;;;5.40;99.90;;;;;;4999356;28;20042;-76
2023/12/16 05:23:21;;;;;;;12.88;2.28;;;5.40;99.90;;;;;;5011510;28;20057;-76
2023/12/16 05:25:47;;;;;;;6.03;1.00;;;5.30;99.90;;;;;;4976471;28;20104;-76
2023/12/16 05:28:13;;;;;;;7.35;1.65;;;5.30;99.90;;;;;;4991425;28;20046;-76
2023/12/16 05:30:38;;;;;;;7.45;2.25;;;5.30;99.90;;;;;;4961182;28;20038;-76
2023/12/16 05:33:05;;;;;;;8.27;2.00;;;5.30;99.90;;;;;;4992492;28;20542;-76
2023/12/16 05:35:31;;;;;;;10.60;1.60;;;5.30;99.90;;;;;;4993320;28;20069;-77
2023/12/16 05:37:57;;;;;;;8.63;1.50;;;5.20;99.90;;;;;;4975602;28;20045;-77
2023/12/16 05:40:23;;;;;;;6.75;1.38;;;5.20;99.90;;;;;;4982213;28;20046;-77
2023/12/16 05:42:49;;;;;;;13.40;1.88;;;5.20;99.90;;;;;;4983803;28;20044;-77
2023/12/16 05:45:14;;;;;;;6.55;1.60;;;5.20;99.90;;;;;;4961804;28;20076;-76
2023/12/16 05:47:40;;;;;;;6.13;2.10;;;5.20;99.90;;;;;;4967886;28;20065;-76
2023/12/16 05:50:08;;;;;;;5.40;1.38;;;5.20;99.90;;;;;;4981147;28;20071;-77
2023/12/16 05:52:36;;;;;;;5.57;1.63;;;5.20;99.90;;;;;;5000088;28;20026;-76
2023/12/16 05:55:02;;;;;;;4.72;1.58;;;5.20;99.90;;;;;;5028455;28;20055;-77
2023/12/16 05:57:28;;;;;;;5.35;1.15;;;5.20;99.90;;;;;;4983024;28;20053;-76
2023/12/16 05:59:54;;;;;;;4.90;1.45;;;5.20;99.90;;;;;;4999258;28;20046;-77
2023/12/16 06:02:19;;;;;;;3.05;1.73;;;5.10;99.90;;;;;;4965601;28;20545;-76
2023/12/16 06:04:45;;;;;;;7.45;1.67;;;5.10;99.90;;;;;;4983753;28;20049;-77
2023/12/16 06:07:11;;;;;;;7.35;1.90;;;5.10;99.90;;;;;;4996933;28;20054;-77
2023/12/16 06:09:36;;;;;;;3.30;1.90;;;5.10;99.90;;;;;;4997657;28;20030;-76
2023/12/16 06:12:02;;;;;;;9.35;2.17;;;5.10;99.90;;;;;;4990843;28;20059;-77
2023/12/16 06:14:28;;;;;;;11.25;2.00;;;5.10;99.90;;;;;;4992362;28;20064;-77
2023/12/16 06:16:54;;;;;;;7.47;1.88;;;5.00;99.90;;;;;;4983800;28;20053;-77
2023/12/16 06:19:19;;;;;;;7.55;2.67;;;4.90;99.90;;;;;;4976084;28;20750;-77
2023/12/16 06:21:45;;;;;;;8.50;1.73;;;5.00;99.90;;;;;;5065406;28;20064;-76
2023/12/16 06:24:11;;;;;;;7.70;1.60;;;5.00;99.90;;;;;;4978734;28;20451;-76
2023/12/16 06:26:37;;;;;;;4.82;1.83;;;4.90;99.90;;;;;;4982554;28;20609;-77
2023/12/16 06:29:02;;;;;;;7.53;2.20;;;5.00;99.90;;;;;;4992856;28;20054;-77
2023/12/16 06:31:28;;;;;;;4.25;2.33;;;5.00;99.90;;;;;;5011398;28;20496;-77
2023/12/16 06:33:54;;;;;;;6.07;1.92;;;5.00;99.90;;;;;;5012341;28;20041;-76
2023/12/16 06:36:19;;;;;;;4.40;1.55;;;5.00;99.90;;;;;;4993111;28;20082;-77
2023/12/16 06:38:45;;;;;;;7.35;1.70;;;5.00;99.90;;;;;;4980108;28;20046;-77
2023/12/16 06:41:11;;;;;;;5.60;2.72;;;5.00;99.90;;;;;;4977369;28;20042;-76
2023/12/16 06:43:37;;;;;;;6.30;1.50;;;5.00;99.90;;;;;;4996508;28;20061;-76
2023/12/16 06:46:02;;;;;;;10.20;2.25;;;5.00;99.90;;;;;;4979645;28;20038;-76
2023/12/16 06:48:28;;;;;;;7.20;1.58;;;5.00;99.90;;;;;;4996876;28;20050;-76
2023/12/16 06:50:57;;;;;;;6.03;2.50;;;5.00;99.90;;;;;;4963700;28;20785;-77
2023/12/16 06:53:23;;;;;;;12.13;1.48;;;5.00;99.90;;;;;;4982129;28;20098;-77
2023/12/16 06:55:49;;;;;;;8.57;2.72;;;4.90;99.90;;;;;;4998638;28;20034;-76
2023/12/16 06:58:15;;;;;;;11.27;1.48;;;5.00;99.90;;;;;;4994230;28;20102;-77
2023/12/16 07:00:40;;;;;;;9.63;2.47;;;4.90;99.90;;;;;;4980233;28;20057;-76
2023/12/16 07:03:07;;;;;;;8.20;2.55;;;4.90;99.90;;;;;;4979708;28;20390;-76
2023/12/16 07:05:34;;;;;;;11.23;2.45;;;4.90;99.90;;;;;;5002369;28;20110;-76
2023/12/16 07:08:01;;;;;;;8.57;2.28;;;4.90;99.90;;;;;;4997807;28;20128;-77
2023/12/16 07:10:27;;;;;;;13.10;2.38;;;4.90;99.90;;;;;;4998848;28;20050;-76
2023/12/16 07:12:53;;;;;;;10.45;2.75;;;4.90;99.90;;;;;;5012517;28;20053;-76
2023/12/16 07:15:20;;;;;;;5.63;2.22;;;4.90;99.90;;;;;;4992538;28;20058;-77
2023/12/16 07:17:46;;;;;;;8.45;2.10;;;4.90;99.90;;;;;;4996578;28;20038;-76
2023/12/16 07:20:12;;;;;;;8.88;1.77;;;4.90;99.90;;;;;;5008870;28;20516;-77
2023/12/16 07:22:38;;;;;;;10.18;2.60;;;4.90;99.90;;;;;;5012184;28;20052;-77
2023/12/16 07:25:04;;;;;;;12.77;2.88;;;4.90;99.90;;;;;;4996464;28;20061;-77
2023/12/16 07:27:30;;;;;;;13.23;3.30;;;5.00;99.90;;;;;;4980457;28;20042;-77
2023/12/16 07:29:56;;;;;;;11.40;2.78;;;5.10;99.90;;;;;;4995354;28;20518;-77
2023/12/16 07:32:23;;;;;;;6.40;1.92;;;5.10;99.90;;;;;;4993365;28;20034;-77
2023/12/16 07:34:50;;;;;;;13.13;2.80;;;5.10;99.90;;;;;;4979051;28;20046;-77
2023/12/16 07:37:16;;;;;;;11.38;2.47;;;5.20;99.90;;;;;;4992607;28;20417;-77
2023/12/16 07:39:42;;;;;;;14.93;3.10;;;5.30;99.90;;;;;;4998403;28;20045;-77
2023/12/16 07:42:07;;;;;;;9.65;1.88;;;5.30;99.90;;;;;;4966600;28;20042;-77
2023/12/16 07:44:33;;;;;;;19.13;2.88;;;5.30;99.90;;;;;;5001352;28;20046;-77
2023/12/16 07:46:59;;;;;;;20.63;3.70;;;5.30;99.90;;;;;;4985559;28;20045;-77
2023/12/16 07:49:25;;;;;;;12.75;3.33;;;5.40;99.90;;;;;;5015234;28;20065;-77
2023/12/16 07:51:54;;;;;;;8.75;2.45;;;5.50;99.90;;;;;;4985139;28;20049;-77
2023/12/16 07:54:24;;;;;;;8.45;2.00;;;5.50;99.90;;;;;;5015593;28;20068;-77
2023/12/16 07:56:50;;;;;;;7.15;2.78;;;5.60;99.90;;;;;;5001194;28;20104;-77
2023/12/16 07:59:16;;;;;;;12.00;2.15;;;5.60;99.90;;;;;;5015873;28;20420;-76
2023/12/16 08:01:41;;;;;;;12.00;2.67;;;5.70;99.90;;;;;;5000272;28;20038;-76
2023/12/16 08:04:07;;;;;;;7.82;2.70;;;5.80;99.90;;;;;;4985290;28;20072;-76
2023/12/16 08:06:33;;;;;;;10.50;2.33;;;5.80;99.90;;;;;;4996750;28;20046;-76
2023/12/16 08:08:59;;;;;;;10.00;2.03;;;5.80;99.90;;;;;;4975090;28;20164;-77
2023/12/16 08:11:24;;;;;;;15.48;3.25;;;5.90;99.90;;;;;;4994030;28;20057;-77
2023/12/16 08:13:50;;;;;;;5.63;2.30;;;5.90;99.90;;;;;;4984962;28;20053;-77
2023/12/16 08:16:16;;;;;;;8.60;2.45;;;6.00;99.90;;;;;;4982466;28;20107;-76
2023/12/16 08:18:41;;;;;;;7.28;2.30;;;6.00;99.90;;;;;;4998271;28;20517;-82
2023/12/16 08:21:07;;;;;;;11.02;3.22;;;6.10;99.90;;;;;;4978524;28;20050;-82
2023/12/16 08:23:33;;;;;;;9.07;1.92;;;6.10;99.90;;;;;;4979204;28;20053;-82
2023/12/16 08:25:58;;;;;;;13.20;3.05;;;6.10;99.90;;;;;;4976962;28;20506;-81
2023/12/16 08:28:24;;;;;;;7.47;2.35;;;6.10;99.90;;;;;;4992193;28;20034;-82
2023/12/16 08:30:52;;;;;;;2.22;1.58;;;6.20;99.90;;;;;;4977599;28;20106;-82
2023/12/16 08:33:17;;;;;;;17.80;3.58;;;6.20;99.90;;;;;;4994549;28;20038;-82
2023/12/16 08:35:44;;;;;;;9.40;2.17;;;6.30;99.90;;;;;;4984400;28;20527;-82
2023/12/16 08:38:10;;;;;;;8.55;2.85;;;6.30;99.90;;;;;;4999715;28;20038;-81
2023/12/16 08:40:35;;;;;;;12.45;2.53;;;6.30;99.90;;;;;;5015428;28;20068;-82
2023/12/16 08:43:01;;;;;;;5.82;3.10;;;6.40;99.90;;;;;;4974935;28;20038;-82
2023/12/16 08:45:27;;;;;;;7.10;2.53;;;6.40;99.90;;;;;;4981361;28;20045;-82
2023/12/16 08:47:52;;;;;;;20.88;3.42;;;6.40;99.90;;;;;;4963691;28;20042;-83
2023/12/16 08:50:18;;;;;;;8.27;2.38;;;6.50;99.90;;;;;;4981220;28;20107;-82
2023/12/16 08:52:44;;;;;;;14.85;2.60;;;6.50;99.90;;;;;;4984390;28;20038;-82
2023/12/16 08:55:10;;;;;;;16.02;2.80;;;6.60;99.90;;;;;;4963733;28;20402;-82
2023/12/16 08:57:35;;;;;;;8.43;2.38;;;6.70;99.90;;;;;;4997213;28;20045;-82
2023/12/16 09:00:01;;;;;;;10.45;3.58;;;6.70;99.90;;;;;;5000408;28;20046;-82
2023/12/16 09:02:27;;;;;;;8.15;3.03;;;6.70;99.90;;;;;;4977518;28;20053;-82
2023/12/16 09:04:53;;;;;;;7.15;2.60;;;6.70;99.90;;;;;;4995070;28;20038;-82
2023/12/16 09:07:18;;;;;;;14.35;2.90;;;6.80;99.90;;;;;;4979840;28;20049;-82
2023/12/16 09:09:44;;;;;;;11.30;2.85;;;6.80;99.90;;;;;;4961477;28;20497;-82
2023/12/16 09:12:11;;;;;;;5.43;2.30;;;6.80;99.90;;;;;;4977244;28;20050;-82
2023/12/16 09:14:41;;;;;;;10.00;3.40;;;6.90;99.90;;;;;;5008886;28;20539;-81
2023/12/16 09:17:08;;;;;;;13.45;2.58;;;6.90;99.90;;;;;;4995560;28;20097;-80
2023/12/16 09:19:33;;;;;;;10.88;2.80;;;6.90;99.90;;;;;;5007572;28;20052;-80
2023/12/16 09:21:59;;;;;;;14.20;3.03;;;6.90;99.90;;;;;;4994988;28;20113;-80
2023/12/16 09:24:25;;;;;;;13.55;3.08;;;6.90;99.90;;;;;;4975801;28;20058;-82
2023/12/16 09:26:50;;;;;;;12.15;2.72;;;7.00;99.90;;;;;;5010632;28;20169;-80
2023/12/16 09:29:16;;;;;;;14.98;3.58;;;7.00;99.90;;;;;;4982197;28;20061;-80
2023/12/16 09:31:43;;;;;;;10.63;3.15;;;7.00;99.90;;;;;;4983311;28;20060;-80
2023/12/16 09:34:09;;;;;;;10.43;2.97;;;7.10;99.90;;;;;;5000362;28;20070;-80
2023/12/16 09:36:35;;;;;;;8.77;2.92;;;7.10;99.90;;;;;;4997243;28;20563;-82
2023/12/16 09:39:01;;;;;;;12.98;2.65;;;7.00;99.90;;;;;;4968049;28;20052;-82
2023/12/16 09:41:28;;;;;;;14.48;2.92;;;7.10;99.90;;;;;;4998196;28;20075;-82
2023/12/16 09:43:55;;;;;;;9.68;2.67;;;7.10;99.90;;;;;;5000200;28;20042;-82
2023/12/16 09:46:24;;;;;;;11.88;3.03;;;7.10;99.90;;;;;;4980398;28;20077;-82
2023/12/16 09:48:53;;;;;;;11.70;2.10;;;7.20;99.90;;;;;;5010531;28;20053;-82
2023/12/16 09:51:21;;;;;;;9.15;2.08;;;7.20;99.90;;;;;;4979687;28;20557;-82
2023/12/16 09:53:48;;;;;;;6.40;2.65;;;7.20;99.90;;;;;;4992511;28;20045;-82
2023/12/16 09:56:16;;;;;;;11.32;2.53;;;7.30;99.90;;;;;;5080321;28;20049;-82
2023/12/16 09:58:44;;;;;;;12.93;3.42;;;7.30;99.90;;;;;;4991068;28;20062;-82
2023/12/16 10:01:11;;;;;;;14.40;2.90;;;7.30;99.90;;;;;;4997385;28;20069;-83
2023/12/16 10:03:44;;;;;;;13.45;3.45;;;7.30;99.90;;;;;;4990259;28;20046;-82
2023/12/16 10:06:10;;;;;;;12.70;2.53;;;7.30;99.90;;;;;;5000537;28;20034;-82
2023/12/16 10:08:41;;;;;;;17.08;3.70;;;7.30;99.90;;;;;;5001300;28;20054;-83
2023/12/16 10:11:07;;;;;;;15.30;3.20;;;7.30;99.90;;;;;;4997622;28;20042;-82
2023/12/16 10:13:54;;;;;;;13.65;3.28;;;7.30;99.90;;;;;;4979147;28;20133;-82
2023/12/16 10:16:24;;;;;;;5.53;2.40;;;7.30;99.90;;;;;;5024553;28;20082;-82
2023/12/16 10:18:57;;;;;;;5.10;2.80;;;7.30;99.90;;;;;;4996674;28;20041;-82
2023/12/16 10:21:30;;;;;;;19.95;3.30;;;7.30;99.90;;;;;;5017349;28;20038;-82
2023/12/16 10:23:58;;;;;;;17.40;3.13;;;7.30;99.90;;;;;;5000699;28;20063;-83
2023/12/16 10:26:24;;;;;;;16.17;4.95;;;7.30;99.90;;;;;;4979225;28;20074;-82
2023/12/16 10:28:50;;;;;;;8.00;2.90;;;7.30;99.90;;;;;;4983654;28;20034;-82
2023/12/16 10:31:18;;;;;;;15.52;3.38;;;7.30;99.90;;;;;;4999518;28;20048;-82
2023/12/16 10:33:44;;;;;;;12.38;3.28;;;7.30;99.90;;;;;;5003573;28;20078;-82
2023/12/16 10:36:10;;;;;;;18.27;3.88;;;7.30;99.90;;;;;;4969028;28;20041;-82
2023/12/16 10:38:36;;;;;;;9.15;2.47;;;7.30;99.90;;;;;;4970399;28;20068;-82
2023/12/16 10:41:02;;;;;;;24.48;4.10;;;7.30;99.90;;;;;;4964853;28;20098;-82
2023/12/16 10:43:28;;;;;;;14.60;3.72;;;7.40;99.90;;;;;;4964243;28;20095;-82
2023/12/16 10:45:54;;;;;;;9.70;3.30;;;7.30;99.90;;;;;;5016731;28;20041;-81
2023/12/16 10:48:29;;;;;;;10.10;3.42;;;7.30;99.90;;;;;;4970411;28;20045;-82
2023/12/16 10:50:57;;;;;;;18.95;4.30;;;7.40;99.90;;;;;;5001740;28;20543;-82
2023/12/16 10:53:35;;;;;;;20.50;4.30;;;7.40;99.90;;;;;;5001529;28;20118;-82
2023/12/16 10:56:07;;;;;;;11.43;3.60;;;7.40;99.90;;;;;;5002238;28;20071;-81
2023/12/16 10:58:42;;;;;;;25.10;5.05;;;7.40;99.90;;;;;;4999808;28;20110;-82
2023/12/16 11:01:20;;;;;;;14.52;4.68;;;7.40;99.90;;;;;;5001663;28;20038;-81
2023/12/16 11:03:53;;;;;;;18.67;4.20;;;7.40;99.90;;;;;;5001078;28;20042;-81
2023/12/16 11:06:38;;;;;;;16.30;4.68;;;7.40;99.90;;;;;;5015469;28;20065;-81
2023/12/16 11:09:06;;;;;;;18.90;4.57;;;7.40;99.90;;;;;;4998677;28;20046;-81
2023/12/16 11:11:33;;;;;;;23.00;5.38;;;7.40;99.90;;;;;;5064719;28;20559;-81
2023/12/16 11:13:59;;;;;;;10.48;4.18;;;7.50;99.90;;;;;;4995563;28;20058;-81
2023/12/16 11:16:57;;;;;;;12.23;4.47;;;7.50;99.90;;;;;;4989077;28;20038;-81
2023/12/16 11:19:47;;;;;;;11.52;4.68;;;7.50;99.90;;;;;;5029261;28;20050;-82
2023/12/16 11:22:21;;;;;;;12.40;4.38;;;7.50;99.90;;;;;;5000715;28;20097;-81
2023/12/16 11:24:47;;;;;;;16.60;5.07;;;7.50;99.90;;;;;;4995104;28;20121;-81
2023/12/16 11:27:15;;;;;;;17.05;5.53;;;7.60;99.90;;;;;;5001368;28;20130;-81
2023/12/16 11:29:42;;;;;;;18.67;5.43;;;7.60;99.90;;;;;;5019480;28;20054;-81
2023/12/16 11:32:09;;;;;;;15.57;5.22;;;7.60;99.90;;;;;;4990140;28;20042;-81
2023/12/16 11:34:43;;;;;;;9.18;4.90;;;7.60;99.90;;;;;;5001206;28;20038;-81
2023/12/16 11:37:09;;;;;;;10.25;4.28;;;7.60;99.90;;;;;;4981484;28;20038;-81
2023/12/16 11:39:36;;;;;;;11.98;5.18;;;7.60;99.90;;;;;;5086491;28;20067;-81
2023/12/16 11:42:02;;;;;;;17.80;4.80;;;7.70;99.90;;;;;;4999996;28;20050;-81
2023/12/16 11:44:51;;;;;;;13.25;5.93;;;7.70;99.90;;;;;;4991387;28;20050;-81
2023/12/16 11:47:27;;;;;;;12.02;4.32;;;7.70;99.90;;;;;;4981454;28;20079;-81
2023/12/16 11:49:54;;;;;;;13.48;5.10;;;7.70;99.90;;;;;;4999922;28;20049;-81
2023/12/16 11:52:22;;;;;;;11.57;4.80;;;7.70;99.90;;;;;;4991780;28;20385;-81
2023/12/16 11:54:55;;;;;;;20.55;5.82;;;7.70;99.90;;;;;;4981977;28;20077;-80
2023/12/16 11:57:25;;;;;;;7.88;4.00;;;7.70;99.90;;;;;;4993248;28;20058;-81
2023/12/16 11:59:52;;;;;;;15.23;4.20;;;7.80;99.90;;;;;;5009350;28;20042;-81
2023/12/16 12:02:19;;;;;;;15.60;5.43;;;7.80;99.90;;;;;;4979865;28;20077;-81
2023/12/16 12:04:46;;;;;;;20.02;5.07;;;7.80;99.90;;;;;;5001598;28;20049;-81
2023/12/16 12:07:16;;;;;;;11.77;4.53;;;7.80;99.90;;;;;;5015387;28;20066;-81
2023/12/16 12:09:43;;;;;;;11.55;4.80;;;7.80;99.90;;;;;;4993274;28;20042;-81
2023/12/16 12:12:10;;;;;;;11.85;4.95;;;7.80;99.90;;;;;;5000048;28;20070;-81
2023/12/16 12:14:45;;;;;;;15.70;4.68;;;7.80;99.90;;;;;;5000278;28;20050;-81
2023/12/16 12:17:11;;;;;;;12.93;4.65;;;7.90;99.90;;;;;;4999646;28;20053;-81
2023/12/16 12:19:36;;;;;;;15.38;5.07;;;7.90;99.90;;;;;;5014691;28;20090;-80
2023/12/16 12:22:02;;;;;;;17.30;5.18;;;7.90;99.90;;;;;;4998300;28;20066;-80
2023/12/16 12:24:28;;;;;;;12.13;4.72;;;7.90;99.90;;;;;;5013607;28;20531;-81
2023/12/16 12:26:53;;;;;;;13.65;4.97;;;7.90;99.90;;;;;;4985010;28;20063;-81
2023/12/16 12:29:19;;;;;;;13.90;5.65;;;8.00;99.90;;;;;;4978406;28;20034;-80
2023/12/16 12:31:46;;;;;;;12.38;4.88;;;8.00;99.90;;;;;;4999095;28;20049;-80
2023/12/16 12:34:22;;;;;;;15.02;4.28;;;8.00;99.90;;;;;;5016446;28;20042;-81
2023/12/16 12:36:54;;;;;;;15.25;4.88;;;8.00;99.90;;;;;;5010954;28;20048;-80
2023/12/16 12:39:20;;;;;;;10.13;4.30;;;8.00;99.90;;;;;;5013501;28;20152;-81
2023/12/16 12:42:02;;;;;;;16.13;6.05;;;8.10;99.90;;;;;;4998739;28;20042;-81
2023/12/16 12:44:30;;;;;;;12.00;4.40;;;8.10;99.90;;;;;;4998200;28;20068;-81
2023/12/16 12:46:56;;;;;;;19.00;5.57;;;8.10;99.90;;;;;;5010148;28;20494;-81
2023/12/16 12:49:33;;;;;;;15.60;5.07;;;8.10;99.90;;;;;;5009771;28;20041;-81
2023/12/16 12:51:59;;;;;;;8.57;4.60;;;8.10;99.90;;;;;;5010670;28;20053;-81